Time;durP1;ratioP1;P1;durP2;ratioP2;P2;SDS_P1;SDS_P2;PMS_P1;PMS_P2;Temp;Humidity;BMP_temperature;BMP_pressure;BME280_temperature;BME280_humidity;BME280_pressure;Samples;Min_cycle;Max_cycle;Signal;HPM_P1;HPM_P2
2021/05/27 00:00:26;;;;;;;3.93;1.90;;;13.70;83.60;;;;;;5000765;28;20444;-84
2021/05/27 00:03:14;;;;;;;3.30;2.27;;;13.60;83.50;;;;;;4997704;28;20458;-84
2021/05/27 00:05:43;;;;;;;3.87;2.17;;;13.60;83.60;;;;;;5001868;28;20208;-84
2021/05/27 00:08:11;;;;;;;4.17;2.37;;;13.60;83.70;;;;;;4996362;28;20204;-85
2021/05/27 00:10:39;;;;;;;3.53;2.27;;;13.50;84.10;;;;;;5002713;28;20289;-86
2021/05/27 00:13:07;;;;;;;2.50;2.30;;;13.50;83.90;;;;;;5003051;28;20658;-85
2021/05/27 00:15:41;;;;;;;3.50;2.20;;;13.40;84.00;;;;;;5003809;28;20232;-83
2021/05/27 00:18:09;;;;;;;3.70;2.23;;;13.30;84.50;;;;;;5001189;28;20199;-84
2021/05/27 00:20:39;;;;;;;3.33;2.43;;;13.30;84.90;;;;;;5003034;28;20212;-85
2021/05/27 00:23:07;;;;;;;2.50;2.03;;;13.20;85.10;;;;;;5003304;28;20219;-84
2021/05/27 00:25:36;;;;;;;2.40;2.20;;;13.20;85.20;;;;;;5012147;28;20199;-85
2021/05/27 00:28:04;;;;;;;4.50;2.40;;;13.20;85.30;;;;;;5011356;28;20218;-85
2021/05/27 00:30:35;;;;;;;4.53;2.60;;;13.10;85.30;;;;;;5015261;28;20233;-85
2021/05/27 00:33:04;;;;;;;2.90;2.40;;;13.10;85.30;;;;;;5003512;28;20719;-86
2021/05/27 00:35:32;;;;;;;3.43;2.40;;;13.10;85.40;;;;;;4979068;28;20624;-86
2021/05/27 00:38:01;;;;;;;4.57;2.50;;;13.10;85.40;;;;;;5000961;28;20235;-85
2021/05/27 00:40:30;;;;;;;6.77;2.63;;;13.10;85.50;;;;;;5000610;28;20207;-84
2021/05/27 00:42:58;;;;;;;4.40;2.70;;;13.10;85.20;;;;;;5001644;28;20199;-85
2021/05/27 00:45:27;;;;;;;4.47;2.30;;;13.20;85.40;;;;;;5001649;28;20206;-83
2021/05/27 00:47:55;;;;;;;5.93;2.80;;;13.10;85.60;;;;;;5013761;28;20196;-85
2021/05/27 00:50:23;;;;;;;3.33;2.63;;;13.20;85.50;;;;;;5013556;28;20215;-85
2021/05/27 00:52:53;;;;;;;2.40;2.20;;;13.10;85.70;;;;;;5020903;28;20204;-84
2021/05/27 00:55:25;;;;;;;3.70;2.53;;;13.10;86.60;;;;;;5009512;28;20205;-85
2021/05/27 00:57:54;;;;;;;3.77;2.57;;;13.10;87.10;;;;;;5012022;28;20451;-83
2021/05/27 01:00:24;;;;;;;4.27;2.87;;;13.00;87.40;;;;;;5004076;28;20737;-85
2021/05/27 01:02:53;;;;;;;3.13;2.80;;;13.00;88.00;;;;;;5001163;28;20200;-85
2021/05/27 01:05:22;;;;;;;5.57;2.53;;;12.90;88.70;;;;;;5003369;28;20204;-84
2021/05/27 01:07:50;;;;;;;6.33;2.90;;;12.80;89.40;;;;;;5012596;28;20218;-85
2021/05/27 01:10:18;;;;;;;4.77;2.87;;;12.80;90.00;;;;;;4999915;28;20571;-82
2021/05/27 01:12:47;;;;;;;4.10;3.00;;;12.80;90.50;;;;;;5003399;28;21076;-83
2021/05/27 01:15:29;;;;;;;5.10;2.97;;;12.90;90.20;;;;;;4997771;28;20305;-83
2021/05/27 01:17:59;;;;;;;4.53;2.70;;;12.60;90.20;;;;;;4997291;28;20207;-82
2021/05/27 01:20:29;;;;;;;5.63;3.10;;;12.60;91.20;;;;;;5003274;28;20283;-84
2021/05/27 01:22:58;;;;;;;3.63;2.77;;;12.50;90.50;;;;;;5018728;28;20255;-84
2021/05/27 01:25:27;;;;;;;5.23;2.90;;;12.40;91.60;;;;;;5002075;28;20208;-82
2021/05/27 01:27:55;;;;;;;4.97;2.70;;;12.20;91.30;;;;;;5004044;28;20211;-84
2021/05/27 01:30:24;;;;;;;6.07;2.90;;;12.40;90.30;;;;;;4996936;28;20227;-83
2021/05/27 01:32:53;;;;;;;4.60;3.13;;;12.40;90.80;;;;;;5003489;28;20322;-84
2021/05/27 01:35:23;;;;;;;3.87;3.10;;;12.30;90.80;;;;;;5002582;28;20280;-84
2021/05/27 01:37:51;;;;;;;3.27;2.63;;;12.30;91.10;;;;;;5008553;28;20452;-85
2021/05/27 01:40:25;;;;;;;5.07;2.77;;;12.30;90.80;;;;;;5001899;28;20195;-85
2021/05/27 01:42:55;;;;;;;5.73;2.90;;;12.20;90.50;;;;;;5003563;28;20378;-86
2021/05/27 01:45:24;;;;;;;5.37;2.80;;;12.20;90.90;;;;;;5014784;28;20208;-85
2021/05/27 01:47:54;;;;;;;6.17;2.93;;;12.10;91.10;;;;;;5017809;28;20258;-83
2021/05/27 01:50:23;;;;;;;7.40;3.10;;;12.10;91.10;;;;;;5015569;28;20297;-85
2021/05/27 01:52:56;;;;;;;4.50;3.20;;;12.10;91.50;;;;;;5000771;28;20566;-85
2021/05/27 01:55:26;;;;;;;5.33;3.13;;;11.90;92.10;;;;;;5001856;28;20958;-85
2021/05/27 01:57:56;;;;;;;5.07;2.90;;;12.00;92.20;;;;;;5001247;28;20510;-85
2021/05/27 02:00:25;;;;;;;4.63;2.80;;;11.90;92.50;;;;;;4995903;28;20231;-83
2021/05/27 02:02:53;;;;;;;5.67;3.17;;;12.10;92.40;;;;;;4998780;28;20209;-84
2021/05/27 02:05:22;;;;;;;2.93;2.73;;;12.00;92.10;;;;;;4993040;28;20805;-85
2021/05/27 02:07:50;;;;;;;4.60;3.10;;;12.00;91.40;;;;;;5005749;28;20218;-85
2021/05/27 02:10:18;;;;;;;5.50;2.87;;;12.10;90.90;;;;;;5002409;28;20241;-85
2021/05/27 02:12:48;;;;;;;4.07;2.70;;;12.10;90.80;;;;;;5001557;28;20591;-84
2021/05/27 02:15:17;;;;;;;3.17;2.73;;;12.20;90.80;;;;;;5007473;28;21011;-87
2021/05/27 02:17:45;;;;;;;4.60;3.00;;;12.20;90.70;;;;;;5014040;28;20892;-83
2021/05/27 02:20:13;;;;;;;4.50;2.70;;;12.30;90.60;;;;;;5011898;28;20219;-85
2021/05/27 02:22:42;;;;;;;4.87;2.80;;;12.20;90.70;;;;;;5003335;28;20778;-85
2021/05/27 02:25:12;;;;;;;2.87;2.43;;;12.30;90.40;;;;;;5009508;28;20214;-85
2021/05/27 02:27:40;;;;;;;3.30;2.77;;;12.10;90.10;;;;;;5007540;28;20207;-84
2021/05/27 02:30:12;;;;;;;3.70;2.80;;;12.30;90.50;;;;;;4991371;28;20223;-84
2021/05/27 02:32:40;;;;;;;3.63;2.80;;;12.30;90.10;;;;;;5006862;28;20631;-85
2021/05/27 02:35:12;;;;;;;4.67;3.00;;;12.30;90.00;;;;;;5021165;28;20558;-84
2021/05/27 02:37:40;;;;;;;5.00;2.77;;;12.30;90.00;;;;;;5014615;28;20290;-85
2021/05/27 02:40:09;;;;;;;3.13;2.80;;;12.30;90.10;;;;;;5016097;28;20311;-85
2021/05/27 02:42:37;;;;;;;3.57;2.80;;;12.20;90.10;;;;;;5010096;28;20294;-85
2021/05/27 02:45:06;;;;;;;3.73;3.00;;;12.20;90.70;;;;;;5015679;28;20204;-86
2021/05/27 02:47:36;;;;;;;4.03;2.93;;;12.20;91.00;;;;;;5011468;28;20211;-85
2021/05/27 02:50:05;;;;;;;3.13;2.63;;;12.20;91.20;;;;;;5004130;28;20227;-86
2021/05/27 02:52:33;;;;;;;4.53;3.03;;;12.20;91.20;;;;;;5003921;28;20294;-85
2021/05/27 02:55:02;;;;;;;4.23;2.90;;;12.20;91.20;;;;;;5001737;28;20242;-85
2021/05/27 02:57:30;;;;;;;4.90;3.30;;;12.20;91.60;;;;;;4999169;28;20250;-85
2021/05/27 02:59:58;;;;;;;4.87;3.30;;;12.20;91.70;;;;;;5001794;28;20887;-84
2021/05/27 03:02:27;;;;;;;4.10;3.20;;;12.20;92.10;;;;;;5003907;28;20203;-85
2021/05/27 03:04:56;;;;;;;4.90;3.30;;;12.20;91.90;;;;;;5006250;28;20555;-84
2021/05/27 03:07:25;;;;;;;2.93;2.73;;;12.40;91.90;;;;;;5001522;28;20207;-85
2021/05/27 03:09:54;;;;;;;4.40;3.20;;;12.50;92.20;;;;;;5006439;28;20866;-85
2021/05/27 03:12:22;;;;;;;5.87;4.07;;;12.40;92.20;;;;;;5002682;28;20212;-85
2021/05/27 03:14:50;;;;;;;6.80;4.03;;;12.30;92.10;;;;;;5002844;28;20220;-85
2021/05/27 03:17:19;;;;;;;6.57;3.60;;;12.40;92.40;;;;;;5003984;28;20302;-84
2021/05/27 03:19:47;;;;;;;7.97;3.90;;;12.30;92.40;;;;;;5006947;28;20238;-84
2021/05/27 03:22:17;;;;;;;5.20;3.83;;;12.40;92.50;;;;;;5011565;28;20271;-84
2021/05/27 03:24:46;;;;;;;5.37;3.33;;;12.50;92.80;;;;;;5009762;28;20207;-84
2021/05/27 03:27:14;;;;;;;6.83;3.53;;;12.50;93.40;;;;;;5017901;28;20473;-84
2021/05/27 03:29:43;;;;;;;5.27;3.80;;;12.40;93.20;;;;;;5012277;28;20377;-86
2021/05/27 03:32:11;;;;;;;7.27;3.80;;;12.50;93.20;;;;;;5014159;28;20207;-85
2021/05/27 03:34:40;;;;;;;5.40;3.50;;;12.50;92.90;;;;;;5009996;28;20386;-83
2021/05/27 03:37:09;;;;;;;7.07;3.67;;;12.60;92.40;;;;;;5004862;28;20204;-86
2021/05/27 03:39:39;;;;;;;4.83;3.20;;;12.70;92.40;;;;;;4998860;28;20210;-84
2021/05/27 03:42:07;;;;;;;5.27;3.37;;;12.80;92.40;;;;;;5002579;28;20310;-87
2021/05/27 03:44:36;;;;;;;6.67;3.40;;;12.90;92.30;;;;;;5001315;28;20286;-84
2021/05/27 03:47:04;;;;;;;8.17;3.50;;;12.90;92.10;;;;;;5003067;28;20207;-85
2021/05/27 03:49:32;;;;;;;7.93;3.93;;;13.00;91.50;;;;;;4997450;28;20303;-85
2021/05/27 03:52:00;;;;;;;7.03;4.00;;;13.10;91.40;;;;;;5003986;28;20203;-85
2021/05/27 03:54:29;;;;;;;6.43;3.70;;;13.20;91.10;;;;;;4999978;28;20250;-86
2021/05/27 03:56:58;;;;;;;6.63;4.13;;;13.30;90.80;;;;;;5003958;28;20200;-85
2021/05/27 04:02:12;;;;;;;3.77;3.47;;;13.30;89.90;;;;;;5004088;28;20591;-84
2021/05/27 04:07:29;;;;;;;6.60;3.50;;;13.50;89.10;;;;;;4989150;28;20227;-84
2021/05/27 04:09:57;;;;;;;4.87;3.90;;;13.60;88.60;;;;;;5003175;28;20235;-84
2021/05/27 04:12:44;;;;;;;6.67;3.93;;;13.70;89.10;;;;;;4995804;28;20560;-84
2021/05/27 04:15:22;;;;;;;5.43;4.10;;;13.70;89.20;;;;;;5001160;28;20226;-85
2021/05/27 04:17:58;;;;;;;6.73;3.87;;;13.80;89.40;;;;;;4994480;28;20956;-83
2021/05/27 04:20:29;;;;;;;4.53;3.87;;;13.80;89.30;;;;;;4986099;28;20357;-83
2021/05/27 04:22:58;;;;;;;4.67;3.60;;;13.80;88.50;;;;;;4986128;28;20203;-84
2021/05/27 04:25:26;;;;;;;4.40;2.83;;;13.90;87.90;;;;;;4992250;28;20206;-85
2021/05/27 04:27:57;;;;;;;3.37;2.40;;;13.90;87.20;;;;;;5006846;28;20208;-84
2021/05/27 04:31:07;;;;;;;3.83;2.50;;;13.90;86.70;;;;;;4983022;28;20227;-87
2021/05/27 04:33:28;;;;;;;2.60;2.40;;;14.00;86.30;;;;;;4996561;28;20222;-87
2021/05/27 04:35:56;;;;;;;2.77;2.27;;;14.00;85.90;;;;;;5014891;28;20203;-86
2021/05/27 04:38:25;;;;;;;2.93;2.10;;;14.00;85.60;;;;;;4998032;28;20203;-86
2021/05/27 04:40:54;;;;;;;4.57;2.60;;;14.10;85.90;;;;;;4995848;28;20254;-85
2021/05/27 04:43:23;;;;;;;4.53;2.60;;;13.90;85.70;;;;;;5001187;28;20779;-85
2021/05/27 04:45:52;;;;;;;3.00;2.40;;;14.00;85.90;;;;;;4999090;28;20215;-84
2021/05/27 04:48:20;;;;;;;3.13;2.63;;;13.90;85.50;;;;;;5010273;28;20192;-86
2021/05/27 04:50:50;;;;;;;2.67;2.20;;;13.80;85.50;;;;;;4996935;28;20313;-82
2021/05/27 04:53:21;;;;;;;4.83;2.50;;;13.90;85.60;;;;;;4998075;28;20203;-85
2021/05/27 04:55:50;;;;;;;3.33;2.40;;;13.80;85.80;;;;;;5000553;28;20208;-83
2021/05/27 04:58:19;;;;;;;3.20;2.33;;;13.90;85.80;;;;;;4994120;28;20873;-84
2021/05/27 05:00:49;;;;;;;4.17;2.73;;;13.90;85.60;;;;;;5006186;28;20199;-84
2021/05/27 05:03:18;;;;;;;3.23;2.53;;;13.90;85.60;;;;;;5004442;28;20207;-83
2021/05/27 05:05:46;;;;;;;3.57;2.80;;;14.00;85.50;;;;;;5001753;28;20700;-86
2021/05/27 05:08:16;;;;;;;5.70;3.10;;;14.10;85.30;;;;;;4998614;28;20203;-87
2021/05/27 05:10:48;;;;;;;4.13;2.63;;;14.20;85.20;;;;;;4994425;28;20787;-83
2021/05/27 05:13:19;;;;;;;3.53;2.57;;;14.30;84.90;;;;;;4997009;28;20196;-84
2021/05/27 05:15:49;;;;;;;4.13;2.50;;;14.50;85.20;;;;;;4992880;28;20261;-86
2021/05/27 05:18:18;;;;;;;3.07;2.43;;;14.60;84.70;;;;;;5007982;28;20657;-88
2021/05/27 05:20:49;;;;;;;2.50;2.30;;;14.60;84.60;;;;;;4993467;28;20631;-86
2021/05/27 05:23:20;;;;;;;4.47;2.30;;;14.70;84.50;;;;;;4993198;28;20204;-86
2021/05/27 05:25:50;;;;;;;2.47;2.27;;;14.90;84.20;;;;;;4991812;28;20207;-86
2021/05/27 05:28:19;;;;;;;3.00;2.67;;;14.90;84.10;;;;;;4983595;28;20675;-87
2021/05/27 05:30:50;;;;;;;2.83;2.20;;;15.00;84.20;;;;;;4999410;28;21327;-86
2021/05/27 05:33:23;;;;;;;4.03;2.33;;;15.10;84.00;;;;;;5004977;28;20237;-86
2021/05/27 05:35:53;;;;;;;2.77;2.53;;;15.10;83.90;;;;;;5009874;28;20558;-87
2021/05/27 05:38:26;;;;;;;5.50;2.70;;;15.20;83.60;;;;;;5004283;28;20203;-86
2021/05/27 05:40:55;;;;;;;3.13;2.17;;;15.30;83.40;;;;;;5009477;28;20457;-87
2021/05/27 05:43:26;;;;;;;3.47;2.30;;;15.40;83.40;;;;;;5010051;28;20195;-87
2021/05/27 05:45:55;;;;;;;2.57;2.37;;;15.30;83.10;;;;;;5010553;28;20486;-87
2021/05/27 05:48:23;;;;;;;2.30;2.03;;;15.50;83.10;;;;;;5001778;28;20234;-88
2021/05/27 05:50:56;;;;;;;3.00;2.13;;;15.70;83.60;;;;;;5007084;28;20259;-84
2021/05/27 05:53:26;;;;;;;2.97;2.33;;;15.70;82.60;;;;;;5002404;28;20212;-90
2021/05/27 05:55:58;;;;;;;2.40;2.20;;;15.50;82.80;;;;;;4998041;28;20296;-85
2021/05/27 05:58:27;;;;;;;3.00;2.13;;;15.60;82.90;;;;;;5004081;28;20214;-88
2021/05/27 06:00:58;;;;;;;3.07;2.40;;;15.40;82.70;;;;;;4994162;28;20402;-84
2021/05/27 06:03:26;;;;;;;3.13;2.27;;;15.10;82.60;;;;;;4989404;28;20204;-84
2021/05/27 06:05:55;;;;;;;2.70;1.90;;;15.10;82.80;;;;;;4996081;28;20207;-86
2021/05/27 06:08:24;;;;;;;2.63;2.00;;;15.00;83.00;;;;;;5000858;28;20228;-87
2021/05/27 06:10:58;;;;;;;3.03;2.40;;;15.10;83.10;;;;;;4994582;28;20253;-86
2021/05/27 06:13:29;;;;;;;3.07;2.07;;;15.20;83.00;;;;;;4989497;28;20199;-84
2021/05/27 06:16:00;;;;;;;2.57;1.80;;;15.10;83.00;;;;;;4980371;28;20220;-82
2021/05/27 06:18:28;;;;;;;3.03;2.10;;;14.90;82.80;;;;;;4980130;28;20760;-88
2021/05/27 06:20:57;;;;;;;3.67;2.20;;;14.90;82.90;;;;;;4990624;28;20418;-88
2021/05/27 06:23:25;;;;;;;2.17;1.97;;;14.90;83.10;;;;;;4984021;28;20212;-87
2021/05/27 06:25:54;;;;;;;2.30;2.10;;;14.90;83.10;;;;;;4988493;28;20480;-86
2021/05/27 06:28:22;;;;;;;3.33;1.97;;;15.00;83.00;;;;;;4988716;28;20203;-86
2021/05/27 06:30:50;;;;;;;2.43;2.20;;;15.00;82.90;;;;;;4982482;28;20231;-87
2021/05/27 06:33:20;;;;;;;2.40;2.13;;;14.90;83.10;;;;;;4977951;28;20198;-85
2021/05/27 06:35:48;;;;;;;3.97;2.60;;;14.90;83.00;;;;;;4985642;28;20203;-85
2021/05/27 06:38:16;;;;;;;4.27;2.37;;;15.00;83.30;;;;;;4976906;28;20857;-87
2021/05/27 06:40:44;;;;;;;2.30;2.10;;;15.10;83.10;;;;;;4981532;28;20375;-87
2021/05/27 06:43:12;;;;;;;2.90;2.17;;;15.20;82.90;;;;;;4982853;28;20646;-86
2021/05/27 06:45:40;;;;;;;2.77;2.17;;;15.40;82.90;;;;;;4993924;28;20258;-87
2021/05/27 06:48:09;;;;;;;4.07;2.50;;;15.70;82.80;;;;;;4980270;28;20506;-85
2021/05/27 06:50:39;;;;;;;2.90;2.03;;;15.70;82.30;;;;;;4981168;28;20245;-86
2021/05/27 06:53:09;;;;;;;2.47;2.00;;;15.70;82.50;;;;;;4977251;28;20214;-85
2021/05/27 06:55:39;;;;;;;2.40;2.20;;;15.90;82.30;;;;;;4979305;28;20287;-83
2021/05/27 06:58:09;;;;;;;4.23;1.90;;;16.00;82.40;;;;;;4984758;28;20890;-85
2021/05/27 07:00:43;;;;;;;2.40;2.13;;;16.30;82.30;;;;;;4993719;28;20207;-86
2021/05/27 07:03:16;;;;;;;2.50;2.30;;;16.40;82.10;;;;;;4992234;28;20254;-87
2021/05/27 07:05:46;;;;;;;2.00;1.80;;;16.60;81.70;;;;;;4989503;28;20302;-86
2021/05/27 07:08:15;;;;;;;2.37;2.17;;;16.70;81.50;;;;;;4994524;28;20192;-87
2021/05/27 07:10:44;;;;;;;3.77;2.00;;;16.60;81.40;;;;;;5006305;28;20577;-86
2021/05/27 07:13:13;;;;;;;2.50;2.30;;;16.40;81.40;;;;;;4981877;28;20208;-88
2021/05/27 07:15:41;;;;;;;2.83;2.10;;;16.30;81.70;;;;;;4979298;28;20203;-87
2021/05/27 07:18:12;;;;;;;3.67;2.20;;;16.30;81.70;;;;;;4984185;28;20460;-87
2021/05/27 07:20:43;;;;;;;2.60;2.30;;;16.20;81.60;;;;;;4989852;28;20239;-85
2021/05/27 07:23:12;;;;;;;2.80;2.33;;;16.20;81.80;;;;;;4986119;28;20199;-87
2021/05/27 07:25:46;;;;;;;2.57;2.37;;;15.90;81.60;;;;;;4991292;28;20206;-86
2021/05/27 07:28:15;;;;;;;3.10;2.53;;;15.90;81.80;;;;;;4986426;28;20214;-89
2021/05/27 07:30:44;;;;;;;4.30;2.60;;;15.80;82.00;;;;;;4987088;28;20520;-86
2021/05/27 07:33:13;;;;;;;3.60;2.57;;;15.80;82.00;;;;;;5008725;28;20284;-88
2021/05/27 07:35:41;;;;;;;2.20;2.00;;;15.80;82.30;;;;;;4995993;28;20634;-87
2021/05/27 07:38:14;;;;;;;3.83;3.10;;;15.80;82.30;;;;;;4991442;28;20335;-90
2021/05/27 07:40:45;;;;;;;2.50;2.10;;;16.00;82.80;;;;;;4992331;28;20204;-85
2021/05/27 07:43:19;;;;;;;2.50;2.23;;;16.10;81.80;;;;;;4988962;28;20719;-86
2021/05/27 07:45:47;;;;;;;2.37;1.83;;;16.30;81.80;;;;;;4985073;28;20258;-88
2021/05/27 07:48:15;;;;;;;3.20;1.87;;;16.90;81.00;;;;;;4992107;28;20434;-83
2021/05/27 07:50:44;;;;;;;2.10;2.00;;;16.80;80.10;;;;;;5000057;28;20208;-90
2021/05/27 07:55:59;;;;;;;2.77;1.90;;;16.40;80.00;;;;;;4991359;28;20336;-87
2021/05/27 07:58:28;;;;;;;2.03;1.83;;;16.30;80.30;;;;;;4990718;28;20838;-85
2021/05/27 08:00:58;;;;;;;2.17;1.90;;;16.20;80.30;;;;;;5004520;28;21234;-87
2021/05/27 08:03:28;;;;;;;2.80;1.80;;;16.20;80.40;;;;;;5007743;28;20238;-86
2021/05/27 08:06:00;;;;;;;3.77;1.90;;;16.20;80.80;;;;;;4989093;28;20207;-85
2021/05/27 08:08:35;;;;;;;1.77;1.53;;;16.40;80.40;;;;;;4990823;28;20522;-86
2021/05/27 08:11:04;;;;;;;3.10;1.87;;;16.80;79.50;;;;;;4983140;28;20235;-84
2021/05/27 08:13:39;;;;;;;1.80;1.70;;;17.30;80.10;;;;;;4985979;28;20552;-88
2021/05/27 08:16:25;;;;;;;1.50;1.40;;;17.50;78.50;;;;;;4988694;28;20234;-89
2021/05/27 08:18:58;;;;;;;2.07;1.50;;;17.70;78.10;;;;;;4997976;28;20196;-87
2021/05/27 08:21:32;;;;;;;4.80;2.20;;;17.50;78.00;;;;;;5002307;28;20203;-86
2021/05/27 08:24:04;;;;;;;2.40;1.90;;;17.50;77.80;;;;;;4994249;28;20692;-84
2021/05/27 08:26:34;;;;;;;1.97;1.70;;;17.10;78.30;;;;;;5002838;28;20203;-87
2021/05/27 08:29:05;;;;;;;3.10;1.80;;;16.90;79.00;;;;;;4987875;28;20600;-83
2021/05/27 08:31:38;;;;;;;2.70;1.70;;;17.00;78.90;;;;;;4988332;28;20234;-84
2021/05/27 08:34:07;;;;;;;2.23;1.97;;;17.20;78.50;;;;;;4992330;28;20556;-86
2021/05/27 08:36:37;;;;;;;1.93;1.80;;;17.10;78.30;;;;;;4984929;28;20210;-86
2021/05/27 08:39:10;;;;;;;2.07;1.50;;;17.20;78.50;;;;;;4987617;28;20199;-86
2021/05/27 08:41:43;;;;;;;1.67;1.57;;;17.40;78.30;;;;;;4984112;28;20786;-87
2021/05/27 08:44:13;;;;;;;1.80;1.70;;;17.20;77.50;;;;;;4979395;28;20216;-85
2021/05/27 08:46:47;;;;;;;2.53;1.67;;;17.10;77.80;;;;;;4983575;28;20199;-85
2021/05/27 08:49:17;;;;;;;3.40;1.90;;;17.30;78.10;;;;;;4994953;28;20229;-88
2021/05/27 08:51:46;;;;;;;2.57;1.63;;;17.50;77.30;;;;;;4994640;28;20391;-87
2021/05/27 08:54:26;;;;;;;1.80;1.70;;;17.60;77.00;;;;;;5002757;28;20238;-86
2021/05/27 08:56:55;;;;;;;2.10;1.90;;;17.80;77.50;;;;;;4984704;28;20212;-84
2021/05/27 08:59:26;;;;;;;2.00;1.60;;;18.10;76.80;;;;;;4985667;28;20208;-84
2021/05/27 09:02:03;;;;;;;1.93;1.77;;;18.30;76.10;;;;;;4979679;28;20422;-85
2021/05/27 09:04:32;;;;;;;1.70;1.60;;;18.20;75.50;;;;;;4985922;28;20501;-82
2021/05/27 09:07:02;;;;;;;2.40;1.90;;;17.60;76.00;;;;;;4983128;28;20215;-86
2021/05/27 09:09:50;;;;;;;1.57;1.47;;;17.40;76.40;;;;;;4984256;28;20309;-86
2021/05/27 09:12:37;;;;;;;2.40;1.50;;;17.30;76.60;;;;;;4980543;28;20254;-87
2021/05/27 09:15:21;;;;;;;2.67;1.80;;;17.50;76.90;;;;;;4981257;28;20211;-88
2021/05/27 09:17:52;;;;;;;2.07;1.87;;;17.70;76.70;;;;;;4984008;28;20215;-85
2021/05/27 09:20:22;;;;;;;1.80;1.40;;;17.80;75.30;;;;;;4979819;28;20210;-85
2021/05/27 09:23:11;;;;;;;1.70;1.60;;;17.90;75.60;;;;;;4990966;28;20235;-87
2021/05/27 09:25:49;;;;;;;1.67;1.53;;;18.00;74.80;;;;;;4993746;28;20247;-85
2021/05/27 09:28:20;;;;;;;2.17;1.50;;;18.00;74.60;;;;;;4984279;28;20405;-84
2021/05/27 09:30:51;;;;;;;1.40;1.30;;;18.00;74.10;;;;;;4989841;28;20195;-83
2021/05/27 09:33:29;;;;;;;1.80;1.40;;;18.00;73.90;;;;;;4993687;28;20224;-84
2021/05/27 09:36:07;;;;;;;1.73;1.60;;;18.30;74.00;;;;;;4987253;28;20306;-85
2021/05/27 09:38:37;;;;;;;1.73;1.43;;;18.40;73.30;;;;;;4994105;28;20481;-86
2021/05/27 09:41:21;;;;;;;2.43;1.60;;;18.10;73.00;;;;;;4999554;28;20207;-85
2021/05/27 09:43:51;;;;;;;2.30;1.53;;;18.10;72.60;;;;;;4985005;28;21019;-83
2021/05/27 09:46:21;;;;;;;1.73;1.60;;;18.20;72.60;;;;;;4973064;28;20227;-86
2021/05/27 09:49:03;;;;;;;1.53;1.43;;;18.40;72.70;;;;;;4978304;28;20219;-84
2021/05/27 09:51:33;;;;;;;1.50;1.40;;;18.80;72.50;;;;;;4976728;28;20208;-88
2021/05/27 09:54:03;;;;;;;4.00;1.50;;;19.10;72.90;;;;;;4995487;28;21019;-86
2021/05/27 09:56:34;;;;;;;2.57;1.47;;;19.30;71.70;;;;;;4991499;28;20272;-86
2021/05/27 09:59:15;;;;;;;1.20;1.10;;;19.10;71.60;;;;;;5002848;28;20195;-87
2021/05/27 10:02:15;;;;;;;1.70;1.60;;;19.20;70.70;;;;;;4997385;28;20568;-84
2021/05/27 10:05:06;;;;;;;1.80;1.47;;;19.40;70.40;;;;;;4991646;28;20446;-85
2021/05/27 10:07:38;;;;;;;2.77;1.30;;;19.30;70.70;;;;;;5007944;28;20290;-85
2021/05/27 10:10:27;;;;;;;2.37;1.57;;;19.10;70.60;;;;;;4999748;28;20192;-86
2021/05/27 10:13:01;;;;;;;1.70;1.60;;;19.00;71.00;;;;;;4996219;28;20466;-83
2021/05/27 10:15:48;;;;;;;1.70;1.30;;;18.90;70.40;;;;;;4990996;28;20281;-84
2021/05/27 10:18:19;;;;;;;1.93;1.60;;;19.00;70.60;;;;;;4982725;28;20203;-85
2021/05/27 10:20:51;;;;;;;1.43;1.33;;;18.90;69.70;;;;;;4991722;28;20204;-85
2021/05/27 10:23:19;;;;;;;1.67;1.33;;;18.80;69.10;;;;;;4992400;28;20196;-86
2021/05/27 10:25:56;;;;;;;1.20;1.20;;;18.50;68.80;;;;;;4977347;28;20207;-84
2021/05/27 10:28:28;;;;;;;1.40;1.30;;;18.40;69.70;;;;;;4984662;28;20266;-84
2021/05/27 10:30:58;;;;;;;2.30;1.33;;;18.30;69.90;;;;;;4972909;28;20213;-81
2021/05/27 10:33:27;;;;;;;1.87;1.40;;;18.30;69.90;;;;;;4992593;28;20223;-83
2021/05/27 10:35:57;;;;;;;2.30;1.40;;;18.50;70.00;;;;;;4968520;28;20670;-86
2021/05/27 10:38:49;;;;;;;1.10;1.10;;;18.70;68.90;;;;;;4967503;28;20516;-82
2021/05/27 10:41:30;;;;;;;2.37;1.50;;;18.60;68.60;;;;;;4971742;28;20444;-84
2021/05/27 10:44:17;;;;;;;1.50;1.30;;;18.60;68.20;;;;;;4956347;28;20250;-83
2021/05/27 10:47:14;;;;;;;1.57;1.47;;;18.60;68.30;;;;;;4964597;28;20896;-86
2021/05/27 10:49:58;;;;;;;1.90;1.37;;;18.90;68.70;;;;;;4974199;28;20224;-84
2021/05/27 10:52:44;;;;;;;2.97;1.33;;;19.00;68.90;;;;;;4986252;28;20351;-85
2021/05/27 10:55:54;;;;;;;1.53;1.43;;;19.20;68.60;;;;;;4988280;28;20206;-85
2021/05/27 10:59:09;;;;;;;2.30;1.67;;;19.40;68.70;;;;;;4981873;28;20213;-85
2021/05/27 11:01:58;;;;;;;2.00;1.90;;;19.70;70.50;;;;;;4981442;28;20215;-87
2021/05/27 11:04:44;;;;;;;2.40;1.73;;;19.70;69.10;;;;;;4992138;28;20193;-85
2021/05/27 11:07:28;;;;;;;3.60;1.47;;;19.70;69.80;;;;;;4974967;28;20204;-85
2021/05/27 11:10:04;;;;;;;2.50;1.50;;;19.60;70.20;;;;;;4980697;28;20369;-86
2021/05/27 11:12:34;;;;;;;2.10;1.90;;;19.70;69.40;;;;;;4990744;28;20595;-83
2021/05/27 11:15:14;;;;;;;2.53;1.87;;;19.70;68.60;;;;;;4992691;28;20220;-87
2021/05/27 11:18:07;;;;;;;2.00;1.83;;;19.60;68.50;;;;;;4984948;28;20321;-85
2021/05/27 11:20:36;;;;;;;2.07;1.97;;;19.50;68.90;;;;;;4983479;28;20212;-84
2021/05/27 11:23:14;;;;;;;2.17;1.67;;;19.10;67.60;;;;;;4983160;28;20290;-84
2021/05/27 11:25:42;;;;;;;1.90;1.80;;;18.90;68.80;;;;;;4976536;28;20855;-86
2021/05/27 11:28:36;;;;;;;2.10;1.90;;;18.80;68.90;;;;;;4975893;28;20314;-85
2021/05/27 11:31:06;;;;;;;2.40;1.80;;;19.00;68.80;;;;;;4973275;28;20230;-85
2021/05/27 11:33:56;;;;;;;2.17;1.70;;;19.10;68.40;;;;;;4969763;28;20476;-84
2021/05/27 11:36:27;;;;;;;2.40;1.83;;;19.30;68.40;;;;;;4963406;28;20752;-84
2021/05/27 11:38:56;;;;;;;2.60;1.90;;;19.60;68.60;;;;;;4974843;28;20207;-82
2021/05/27 11:41:24;;;;;;;1.77;1.67;;;19.80;67.40;;;;;;4983494;28;20213;-83
2021/05/27 11:43:56;;;;;;;2.67;2.30;;;20.00;67.50;;;;;;4980235;28;20207;-82
2021/05/27 11:46:27;;;;;;;3.30;1.97;;;20.00;65.70;;;;;;4976825;28;20543;-83
2021/05/27 11:49:00;;;;;;;2.67;2.10;;;19.70;66.40;;;;;;4975314;28;20865;-83
2021/05/27 11:51:39;;;;;;;2.10;1.90;;;19.70;66.70;;;;;;4983196;28;20314;-86
2021/05/27 11:54:10;;;;;;;1.87;1.70;;;19.70;66.20;;;;;;4975516;28;20235;-83
2021/05/27 11:56:49;;;;;;;4.00;1.87;;;19.70;66.70;;;;;;4976239;28;20265;-87
2021/05/27 11:59:26;;;;;;;2.20;2.00;;;19.70;65.70;;;;;;4975463;28;20505;-87
2021/05/27 12:02:03;;;;;;;2.73;2.20;;;19.70;65.80;;;;;;4979910;28;20200;-84
2021/05/27 12:04:33;;;;;;;2.07;1.97;;;19.80;66.10;;;;;;4982525;28;20482;-84
2021/05/27 12:07:06;;;;;;;2.27;2.07;;;19.80;66.00;;;;;;4986062;28;20231;-88
2021/05/27 12:10:05;;;;;;;2.10;1.97;;;19.80;65.70;;;;;;4991922;28;20338;-87
2021/05/27 12:12:35;;;;;;;2.37;2.17;;;19.80;65.10;;;;;;4985156;28;20204;-85
2021/05/27 12:15:08;;;;;;;2.07;1.87;;;19.70;64.60;;;;;;4985961;28;20219;-84
2021/05/27 12:17:41;;;;;;;2.37;2.17;;;19.40;65.30;;;;;;4990490;28;20204;-83
2021/05/27 12:20:15;;;;;;;2.60;2.10;;;19.30;65.60;;;;;;4991720;28;20507;-82
2021/05/27 12:22:52;;;;;;;3.33;2.00;;;19.50;65.80;;;;;;4978353;28;20257;-86
2021/05/27 12:25:25;;;;;;;2.07;1.90;;;19.30;65.20;;;;;;4979993;28;20631;-85
2021/05/27 12:27:59;;;;;;;2.60;2.40;;;19.50;65.90;;;;;;4977720;28;20211;-85
2021/05/27 12:30:31;;;;;;;2.47;2.27;;;19.50;65.10;;;;;;4973659;28;20208;-85
2021/05/27 12:33:00;;;;;;;3.73;2.30;;;19.40;65.90;;;;;;4987683;28;20231;-84
2021/05/27 12:35:32;;;;;;;2.97;2.53;;;19.60;66.60;;;;;;4977126;28;20295;-85
2021/05/27 12:38:02;;;;;;;2.63;2.43;;;20.00;65.60;;;;;;4976141;28;20206;-85
2021/05/27 12:40:36;;;;;;;3.77;2.43;;;20.10;64.10;;;;;;4998451;28;20193;-84
2021/05/27 12:43:20;;;;;;;2.60;2.33;;;20.10;64.90;;;;;;4989198;28;20669;-85
2021/05/27 12:45:50;;;;;;;2.60;2.40;;;20.00;64.50;;;;;;4997330;28;20210;-83
2021/05/27 12:48:34;;;;;;;3.83;2.20;;;19.90;64.10;;;;;;4998133;28;20330;-86
2021/05/27 12:51:22;;;;;;;2.60;2.33;;;19.70;64.80;;;;;;4983524;28;20335;-87
2021/05/27 12:53:58;;;;;;;2.47;2.27;;;19.80;65.10;;;;;;4984610;28;20310;-84
2021/05/27 12:59:24;;;;;;;3.00;2.23;;;19.40;64.60;;;;;;4974763;28;20215;-85
2021/05/27 13:01:57;;;;;;;1.53;1.43;;;20.00;65.20;;;;;;5000554;28;20214;-85
2021/05/27 13:04:38;;;;;;;2.10;2.00;;;20.90;64.90;;;;;;4987951;28;20203;-83
2021/05/27 13:07:11;;;;;;;1.98;1.75;;;21.80;64.00;;;;;;4979120;28;20204;-84
2021/05/27 13:09:58;;;;;;;2.70;1.85;;;22.30;61.70;;;;;;4983775;28;20238;-85
2021/05/27 13:12:46;;;;;;;2.60;2.35;;;22.60;61.70;;;;;;4984608;28;20183;-83
2021/05/27 13:15:15;;;;;;;2.88;2.67;;;22.00;60.70;;;;;;4993042;28;21284;-83
2021/05/27 13:17:44;;;;;;;2.10;2.00;;;21.40;61.80;;;;;;4981985;28;20235;-87
2021/05/27 13:20:13;;;;;;;2.00;1.80;;;21.30;62.10;;;;;;4989253;28;20216;-85
2021/05/27 13:22:42;;;;;;;4.00;2.10;;;21.50;62.50;;;;;;4988814;28;20208;-85
2021/05/27 13:25:13;;;;;;;3.20;1.70;;;21.30;61.10;;;;;;4996863;28;20235;-83